sensor_id;sensor_type;location;lat;lon;timestamp;P1;durP1;ratioP1;P2;durP2;ratioP2
10699;SDS011;5401;41.986;21.452;2023-03-09T00:01:24;42.73;;;24.83;;
10699;SDS011;5401;41.986;21.452;2023-03-09T00:03:54;41.37;;;25.20;;
10699;SDS011;5401;41.986;21.452;2023-03-09T00:06:22;37.17;;;22.53;;
10699;SDS011;5401;41.986;21.452;2023-03-09T00:08:50;40.50;;;24.23;;
10699;SDS011;5401;41.986;21.452;2023-03-09T00:11:18;41.23;;;23.73;;
10699;SDS011;5401;41.986;21.452;2023-03-09T00:13:46;35.97;;;19.47;;
10699;SDS011;5401;41.986;21.452;2023-03-09T00:16:16;41.47;;;20.70;;
10699;SDS011;5401;41.986;21.452;2023-03-09T00:18:48;34.17;;;18.87;;
10699;SDS011;5401;41.986;21.452;2023-03-09T00:21:17;33.20;;;20.37;;
10699;SDS011;5401;41.986;21.452;2023-03-09T00:24:17;37.53;;;19.57;;
10699;SDS011;5401;41.986;21.452;2023-03-09T00:26:47;35.80;;;20.20;;
10699;SDS011;5401;41.986;21.452;2023-03-09T00:29:16;26.60;;;19.27;;
10699;SDS011;5401;41.986;21.452;2023-03-09T00:31:44;25.30;;;18.13;;
10699;SDS011;5401;41.986;21.452;2023-03-09T00:34:13;26.13;;;19.00;;
10699;SDS011;5401;41.986;21.452;2023-03-09T00:36:41;35.80;;;20.43;;
10699;SDS011;5401;41.986;21.452;2023-03-09T00:39:09;27.30;;;18.63;;
10699;SDS011;5401;41.986;21.452;2023-03-09T00:41:40;35.33;;;20.63;;
10699;SDS011;5401;41.986;21.452;2023-03-09T00:44:08;30.07;;;17.20;;
10699;SDS011;5401;41.986;21.452;2023-03-09T00:46:38;29.20;;;17.87;;
10699;SDS011;5401;41.986;21.452;2023-03-09T00:49:06;27.00;;;17.57;;
10699;SDS011;5401;41.986;21.452;2023-03-09T00:51:36;26.27;;;17.87;;
10699;SDS011;5401;41.986;21.452;2023-03-09T00:54:05;32.77;;;18.93;;
10699;SDS011;5401;41.986;21.452;2023-03-09T00:56:32;27.43;;;18.90;;
10699;SDS011;5401;41.986;21.452;2023-03-09T00:59:02;27.67;;;18.17;;
10699;SDS011;5401;41.986;21.452;2023-03-09T01:01:29;33.77;;;19.40;;
10699;SDS011;5401;41.986;21.452;2023-03-09T01:03:57;32.33;;;20.27;;
10699;SDS011;5401;41.986;21.452;2023-03-09T01:06:24;42.03;;;20.63;;
10699;SDS011;5401;41.986;21.452;2023-03-09T01:08:52;31.30;;;21.00;;
10699;SDS011;5401;41.986;21.452;2023-03-09T01:11:20;28.30;;;21.27;;
10699;SDS011;5401;41.986;21.452;2023-03-09T01:13:48;29.03;;;19.57;;
10699;SDS011;5401;41.986;21.452;2023-03-09T01:16:17;30.40;;;19.97;;
10699;SDS011;5401;41.986;21.452;2023-03-09T01:18:45;31.13;;;18.63;;
10699;SDS011;5401;41.986;21.452;2023-03-09T01:21:13;23.97;;;17.70;;
10699;SDS011;5401;41.986;21.452;2023-03-09T01:23:40;31.10;;;18.63;;
10699;SDS011;5401;41.986;21.452;2023-03-09T01:26:08;36.33;;;18.97;;
10699;SDS011;5401;41.986;21.452;2023-03-09T01:28:35;23.73;;;18.33;;
10699;SDS011;5401;41.986;21.452;2023-03-09T01:31:05;28.67;;;19.53;;
10699;SDS011;5401;41.986;21.452;2023-03-09T01:33:35;34.03;;;20.90;;
10699;SDS011;5401;41.986;21.452;2023-03-09T01:36:04;30.30;;;21.40;;
10699;SDS011;5401;41.986;21.452;2023-03-09T01:38:32;34.17;;;22.20;;
10699;SDS011;5401;41.986;21.452;2023-03-09T01:41:00;36.50;;;21.00;;
10699;SDS011;5401;41.986;21.452;2023-03-09T01:43:29;31.07;;;20.17;;
10699;SDS011;5401;41.986;21.452;2023-03-09T01:48:55;31.27;;;20.10;;
10699;SDS011;5401;41.986;21.452;2023-03-09T01:51:28;34.83;;;20.77;;
10699;SDS011;5401;41.986;21.452;2023-03-09T01:54:00;30.00;;;19.83;;
10699;SDS011;5401;41.986;21.452;2023-03-09T01:56:31;31.23;;;20.93;;
10699;SDS011;5401;41.986;21.452;2023-03-09T01:59:02;27.83;;;20.13;;
10699;SDS011;5401;41.986;21.452;2023-03-09T02:01:32;29.60;;;20.27;;
10699;SDS011;5401;41.986;21.452;2023-03-09T02:04:04;31.10;;;20.00;;
10699;SDS011;5401;41.986;21.452;2023-03-09T02:06:36;32.77;;;21.10;;
10699;SDS011;5401;41.986;21.452;2023-03-09T02:09:06;30.10;;;20.30;;
10699;SDS011;5401;41.986;21.452;2023-03-09T02:11:41;28.03;;;19.83;;
10699;SDS011;5401;41.986;21.452;2023-03-09T02:14:09;33.60;;;20.50;;
10699;SDS011;5401;41.986;21.452;2023-03-09T02:16:37;29.67;;;18.77;;
10699;SDS011;5401;41.986;21.452;2023-03-09T02:19:07;29.53;;;20.80;;
10699;SDS011;5401;41.986;21.452;2023-03-09T02:21:46;30.87;;;20.00;;
10699;SDS011;5401;41.986;21.452;2023-03-09T02:24:18;26.77;;;19.30;;
10699;SDS011;5401;41.986;21.452;2023-03-09T02:26:52;26.43;;;19.73;;
10699;SDS011;5401;41.986;21.452;2023-03-09T02:29:23;28.73;;;19.27;;
10699;SDS011;5401;41.986;21.452;2023-03-09T02:31:51;28.63;;;20.20;;
10699;SDS011;5401;41.986;21.452;2023-03-09T02:34:19;40.30;;;24.73;;
10699;SDS011;5401;41.986;21.452;2023-03-09T02:36:47;48.37;;;28.57;;
10699;SDS011;5401;41.986;21.452;2023-03-09T02:39:16;47.17;;;26.83;;
10699;SDS011;5401;41.986;21.452;2023-03-09T02:41:48;46.13;;;25.73;;
10699;SDS011;5401;41.986;21.452;2023-03-09T02:44:16;63.03;;;27.43;;
10699;SDS011;5401;41.986;21.452;2023-03-09T02:46:45;48.47;;;23.17;;
10699;SDS011;5401;41.986;21.452;2023-03-09T02:49:13;49.13;;;20.13;;
10699;SDS011;5401;41.986;21.452;2023-03-09T02:51:41;51.90;;;28.83;;
10699;SDS011;5401;41.986;21.452;2023-03-09T02:54:08;48.73;;;30.70;;
10699;SDS011;5401;41.986;21.452;2023-03-09T02:56:35;58.17;;;28.17;;
10699;SDS011;5401;41.986;21.452;2023-03-09T02:59:03;49.47;;;30.33;;
10699;SDS011;5401;41.986;21.452;2023-03-09T03:01:31;50.53;;;30.00;;
10699;SDS011;5401;41.986;21.452;2023-03-09T03:03:59;52.07;;;28.43;;
10699;SDS011;5401;41.986;21.452;2023-03-09T03:06:27;47.87;;;30.33;;
10699;SDS011;5401;41.986;21.452;2023-03-09T03:08:55;45.13;;;29.70;;
10699;SDS011;5401;41.986;21.452;2023-03-09T03:11:22;48.53;;;31.40;;
10699;SDS011;5401;41.986;21.452;2023-03-09T03:13:50;45.90;;;29.53;;
10699;SDS011;5401;41.986;21.452;2023-03-09T03:16:17;49.20;;;29.97;;
10699;SDS011;5401;41.986;21.452;2023-03-09T03:18:45;53.73;;;32.60;;
10699;SDS011;5401;41.986;21.452;2023-03-09T03:21:14;47.37;;;29.70;;
10699;SDS011;5401;41.986;21.452;2023-03-09T03:23:42;46.63;;;31.10;;
10699;SDS011;5401;41.986;21.452;2023-03-09T03:26:10;45.37;;;31.23;;
10699;SDS011;5401;41.986;21.452;2023-03-09T03:28:38;40.03;;;29.57;;
10699;SDS011;5401;41.986;21.452;2023-03-09T03:31:06;42.90;;;31.20;;
10699;SDS011;5401;41.986;21.452;2023-03-09T03:33:33;43.50;;;29.57;;
10699;SDS011;5401;41.986;21.452;2023-03-09T03:36:00;39.90;;;27.80;;
10699;SDS011;5401;41.986;21.452;2023-03-09T03:38:30;43.83;;;29.00;;
10699;SDS011;5401;41.986;21.452;2023-03-09T03:40:57;38.87;;;27.97;;
10699;SDS011;5401;41.986;21.452;2023-03-09T03:43:25;48.57;;;28.10;;
10699;SDS011;5401;41.986;21.452;2023-03-09T03:45:53;46.77;;;28.07;;
10699;SDS011;5401;41.986;21.452;2023-03-09T03:48:20;36.80;;;26.90;;
10699;SDS011;5401;41.986;21.452;2023-03-09T03:50:48;34.90;;;26.30;;
10699;SDS011;5401;41.986;21.452;2023-03-09T03:53:15;40.67;;;27.03;;
10699;SDS011;5401;41.986;21.452;2023-03-09T03:55:44;37.50;;;26.13;;
10699;SDS011;5401;41.986;21.452;2023-03-09T03:58:12;42.17;;;25.10;;
10699;SDS011;5401;41.986;21.452;2023-03-09T04:00:39;42.63;;;26.37;;
10699;SDS011;5401;41.986;21.452;2023-03-09T04:03:07;33.97;;;24.47;;
10699;SDS011;5401;41.986;21.452;2023-03-09T04:05:34;38.37;;;24.23;;
10699;SDS011;5401;41.986;21.452;2023-03-09T04:08:02;45.63;;;25.83;;
10699;SDS011;5401;41.986;21.452;2023-03-09T04:10:30;38.03;;;24.23;;
10699;SDS011;5401;41.986;21.452;2023-03-09T04:12:59;40.67;;;23.93;;
10699;SDS011;5401;41.986;21.452;2023-03-09T04:15:27;40.10;;;24.90;;
10699;SDS011;5401;41.986;21.452;2023-03-09T04:17:54;37.63;;;22.80;;
10699;SDS011;5401;41.986;21.452;2023-03-09T04:20:21;28.70;;;22.10;;
10699;SDS011;5401;41.986;21.452;2023-03-09T04:22:49;34.37;;;24.30;;
10699;SDS011;5401;41.986;21.452;2023-03-09T04:25:17;40.90;;;24.37;;
10699;SDS011;5401;41.986;21.452;2023-03-09T04:27:44;38.40;;;24.20;;
10699;SDS011;5401;41.986;21.452;2023-03-09T04:30:13;37.27;;;23.07;;
10699;SDS011;5401;41.986;21.452;2023-03-09T04:32:46;36.47;;;23.03;;
10699;SDS011;5401;41.986;21.452;2023-03-09T04:35:14;34.00;;;23.23;;
10699;SDS011;5401;41.986;21.452;2023-03-09T04:37:42;42.10;;;23.53;;
10699;SDS011;5401;41.986;21.452;2023-03-09T04:40:11;36.57;;;24.37;;
10699;SDS011;5401;41.986;21.452;2023-03-09T04:42:39;37.60;;;25.07;;
10699;SDS011;5401;41.986;21.452;2023-03-09T04:45:07;37.00;;;23.50;;
10699;SDS011;5401;41.986;21.452;2023-03-09T04:47:36;30.30;;;22.50;;
10699;SDS011;5401;41.986;21.452;2023-03-09T04:50:04;32.17;;;23.57;;
10699;SDS011;5401;41.986;21.452;2023-03-09T04:52:32;37.33;;;22.60;;
10699;SDS011;5401;41.986;21.452;2023-03-09T04:55:00;31.17;;;21.90;;
10699;SDS011;5401;41.986;21.452;2023-03-09T04:57:27;32.97;;;22.63;;
10699;SDS011;5401;41.986;21.452;2023-03-09T04:59:55;32.07;;;22.57;;
10699;SDS011;5401;41.986;21.452;2023-03-09T05:02:22;35.07;;;24.13;;
10699;SDS011;5401;41.986;21.452;2023-03-09T05:04:51;36.73;;;24.17;;
10699;SDS011;5401;41.986;21.452;2023-03-09T05:07:18;32.37;;;23.53;;
10699;SDS011;5401;41.986;21.452;2023-03-09T05:09:46;34.43;;;21.57;;
10699;SDS011;5401;41.986;21.452;2023-03-09T05:12:14;36.87;;;23.37;;
10699;SDS011;5401;41.986;21.452;2023-03-09T05:14:41;29.27;;;20.80;;
10699;SDS011;5401;41.986;21.452;2023-03-09T05:17:09;29.97;;;21.43;;
10699;SDS011;5401;41.986;21.452;2023-03-09T05:19:36;32.40;;;21.10;;
10699;SDS011;5401;41.986;21.452;2023-03-09T05:22:05;30.67;;;20.67;;
10699;SDS011;5401;41.986;21.452;2023-03-09T05:24:33;36.27;;;21.47;;
10699;SDS011;5401;41.986;21.452;2023-03-09T05:27:00;30.13;;;21.23;;
10699;SDS011;5401;41.986;21.452;2023-03-09T05:29:28;28.70;;;20.17;;
10699;SDS011;5401;41.986;21.452;2023-03-09T05:31:55;35.10;;;21.47;;
10699;SDS011;5401;41.986;21.452;2023-03-09T05:34:23;34.47;;;21.50;;
10699;SDS011;5401;41.986;21.452;2023-03-09T05:36:50;29.00;;;21.23;;
10699;SDS011;5401;41.986;21.452;2023-03-09T05:39:19;30.33;;;20.57;;
10699;SDS011;5401;41.986;21.452;2023-03-09T05:41:47;23.50;;;17.00;;
10699;SDS011;5401;41.986;21.452;2023-03-09T05:44:14;23.77;;;17.20;;
10699;SDS011;5401;41.986;21.452;2023-03-09T05:46:41;26.30;;;18.00;;
10699;SDS011;5401;41.986;21.452;2023-03-09T05:49:09;30.40;;;18.17;;
10699;SDS011;5401;41.986;21.452;2023-03-09T05:51:37;29.40;;;18.23;;
10699;SDS011;5401;41.986;21.452;2023-03-09T05:54:04;27.60;;;18.17;;
10699;SDS011;5401;41.986;21.452;2023-03-09T05:56:33;29.13;;;18.67;;
10699;SDS011;5401;41.986;21.452;2023-03-09T05:59:01;40.67;;;21.33;;
10699;SDS011;5401;41.986;21.452;2023-03-09T06:01:29;35.33;;;20.67;;
10699;SDS011;5401;41.986;21.452;2023-03-09T06:03:56;33.87;;;20.57;;
10699;SDS011;5401;41.986;21.452;2023-03-09T06:06:24;39.07;;;21.67;;
10699;SDS011;5401;41.986;21.452;2023-03-09T06:08:52;36.43;;;20.10;;
10699;SDS011;5401;41.986;21.452;2023-03-09T06:11:19;41.67;;;19.83;;
10699;SDS011;5401;41.986;21.452;2023-03-09T06:13:48;33.60;;;19.87;;
10699;SDS011;5401;41.986;21.452;2023-03-09T06:16:19;28.37;;;19.70;;
10699;SDS011;5401;41.986;21.452;2023-03-09T06:18:47;32.47;;;19.60;;
10699;SDS011;5401;41.986;21.452;2023-03-09T06:21:15;27.70;;;18.73;;
10699;SDS011;5401;41.986;21.452;2023-03-09T06:23:42;37.73;;;19.93;;
10699;SDS011;5401;41.986;21.452;2023-03-09T06:26:10;31.03;;;20.10;;
10699;SDS011;5401;41.986;21.452;2023-03-09T06:28:38;29.03;;;19.93;;
10699;SDS011;5401;41.986;21.452;2023-03-09T06:31:08;33.50;;;20.20;;
10699;SDS011;5401;41.986;21.452;2023-03-09T06:33:39;30.70;;;21.50;;
10699;SDS011;5401;41.986;21.452;2023-03-09T06:36:07;35.87;;;21.43;;
10699;SDS011;5401;41.986;21.452;2023-03-09T06:38:35;33.13;;;22.33;;
10699;SDS011;5401;41.986;21.452;2023-03-09T06:41:03;34.43;;;23.33;;
10699;SDS011;5401;41.986;21.452;2023-03-09T06:43:31;33.87;;;23.57;;
10699;SDS011;5401;41.986;21.452;2023-03-09T06:45:58;35.63;;;24.60;;
10699;SDS011;5401;41.986;21.452;2023-03-09T06:48:27;34.33;;;22.53;;
10699;SDS011;5401;41.986;21.452;2023-03-09T06:50:55;38.37;;;23.70;;
10699;SDS011;5401;41.986;21.452;2023-03-09T06:53:22;30.30;;;22.00;;
10699;SDS011;5401;41.986;21.452;2023-03-09T06:55:50;31.00;;;22.80;;
10699;SDS011;5401;41.986;21.452;2023-03-09T06:58:17;31.13;;;22.30;;
10699;SDS011;5401;41.986;21.452;2023-03-09T07:00:45;37.25;;;25.58;;
10699;SDS011;5401;41.986;21.452;2023-03-09T07:03:13;36.53;;;22.50;;
10699;SDS011;5401;41.986;21.452;2023-03-09T07:05:43;31.87;;;21.40;;
10699;SDS011;5401;41.986;21.452;2023-03-09T07:08:13;32.23;;;20.90;;
10699;SDS011;5401;41.986;21.452;2023-03-09T07:10:43;39.30;;;22.50;;
10699;SDS011;5401;41.986;21.452;2023-03-09T07:13:13;36.50;;;24.10;;
10699;SDS011;5401;41.986;21.452;2023-03-09T07:15:42;35.33;;;23.80;;
10699;SDS011;5401;41.986;21.452;2023-03-09T07:18:10;39.17;;;22.57;;
10699;SDS011;5401;41.986;21.452;2023-03-09T07:20:37;32.47;;;22.67;;
10699;SDS011;5401;41.986;21.452;2023-03-09T07:23:07;31.53;;;21.07;;
10699;SDS011;5401;41.986;21.452;2023-03-09T07:25:36;34.97;;;22.00;;
10699;SDS011;5401;41.986;21.452;2023-03-09T07:28:04;30.43;;;21.60;;
10699;SDS011;5401;41.986;21.452;2023-03-09T07:30:35;28.17;;;19.07;;
10699;SDS011;5401;41.986;21.452;2023-03-09T07:33:04;26.67;;;18.63;;
10699;SDS011;5401;41.986;21.452;2023-03-09T07:35:32;28.30;;;18.03;;
10699;SDS011;5401;41.986;21.452;2023-03-09T07:38:00;28.00;;;16.70;;
10699;SDS011;5401;41.986;21.452;2023-03-09T07:40:29;35.23;;;19.37;;
10699;SDS011;5401;41.986;21.452;2023-03-09T07:42:57;24.43;;;15.30;;
10699;SDS011;5401;41.986;21.452;2023-03-09T07:45:29;22.23;;;14.67;;
10699;SDS011;5401;41.986;21.452;2023-03-09T07:47:57;23.17;;;16.03;;
10699;SDS011;5401;41.986;21.452;2023-03-09T07:50:25;17.67;;;13.33;;
10699;SDS011;5401;41.986;21.452;2023-03-09T07:52:53;25.13;;;14.43;;
10699;SDS011;5401;41.986;21.452;2023-03-09T07:55:21;19.67;;;13.67;;
10699;SDS011;5401;41.986;21.452;2023-03-09T07:57:50;17.27;;;13.97;;
10699;SDS011;5401;41.986;21.452;2023-03-09T08:00:18;21.93;;;13.90;;
10699;SDS011;5401;41.986;21.452;2023-03-09T08:02:48;21.57;;;13.23;;
10699;SDS011;5401;41.986;21.452;2023-03-09T08:05:17;18.53;;;12.77;;
10699;SDS011;5401;41.986;21.452;2023-03-09T08:07:45;19.70;;;11.73;;
10699;SDS011;5401;41.986;21.452;2023-03-09T08:10:13;16.57;;;12.43;;
10699;SDS011;5401;41.986;21.452;2023-03-09T08:12:41;20.80;;;12.73;;
10699;SDS011;5401;41.986;21.452;2023-03-09T08:15:11;13.10;;;11.67;;
10699;SDS011;5401;41.986;21.452;2023-03-09T08:17:39;20.37;;;11.40;;
10699;SDS011;5401;41.986;21.452;2023-03-09T08:20:07;19.37;;;12.43;;
10699;SDS011;5401;41.986;21.452;2023-03-09T08:22:37;14.93;;;11.03;;
10699;SDS011;5401;41.986;21.452;2023-03-09T08:25:05;19.00;;;11.97;;
10699;SDS011;5401;41.986;21.452;2023-03-09T08:27:36;18.00;;;11.53;;
10699;SDS011;5401;41.986;21.452;2023-03-09T08:30:04;19.60;;;10.83;;
10699;SDS011;5401;41.986;21.452;2023-03-09T08:32:34;19.53;;;10.80;;
10699;SDS011;5401;41.986;21.452;2023-03-09T08:35:02;16.90;;;12.53;;
10699;SDS011;5401;41.986;21.452;2023-03-09T08:37:30;16.53;;;11.00;;
10699;SDS011;5401;41.986;21.452;2023-03-09T08:39:58;14.33;;;10.30;;
10699;SDS011;5401;41.986;21.452;2023-03-09T08:42:25;16.80;;;11.73;;
10699;SDS011;5401;41.986;21.452;2023-03-09T08:44:53;14.70;;;10.43;;
10699;SDS011;5401;41.986;21.452;2023-03-09T08:47:20;13.80;;;10.33;;
10699;SDS011;5401;41.986;21.452;2023-03-09T08:49:49;12.63;;;9.57;;
10699;SDS011;5401;41.986;21.452;2023-03-09T08:52:17;13.13;;;8.67;;
10699;SDS011;5401;41.986;21.452;2023-03-09T08:54:44;9.37;;;8.07;;
10699;SDS011;5401;41.986;21.452;2023-03-09T08:57:14;10.87;;;7.43;;
10699;SDS011;5401;41.986;21.452;2023-03-09T08:59:42;12.80;;;8.20;;
10699;SDS011;5401;41.986;21.452;2023-03-09T09:02:10;11.57;;;7.93;;
10699;SDS011;5401;41.986;21.452;2023-03-09T09:04:40;10.13;;;6.60;;
10699;SDS011;5401;41.986;21.452;2023-03-09T09:07:09;15.30;;;7.63;;
10699;SDS011;5401;41.986;21.452;2023-03-09T09:09:36;11.80;;;7.47;;
10699;SDS011;5401;41.986;21.452;2023-03-09T09:12:04;20.13;;;8.63;;
10699;SDS011;5401;41.986;21.452;2023-03-09T09:14:32;19.83;;;8.50;;
10699;SDS011;5401;41.986;21.452;2023-03-09T09:17:03;15.87;;;7.77;;
10699;SDS011;5401;41.986;21.452;2023-03-09T09:19:32;12.67;;;8.17;;
10699;SDS011;5401;41.986;21.452;2023-03-09T09:22:00;10.63;;;7.33;;
10699;SDS011;5401;41.986;21.452;2023-03-09T09:24:31;8.80;;;6.63;;
10699;SDS011;5401;41.986;21.452;2023-03-09T09:27:02;10.17;;;5.33;;
10699;SDS011;5401;41.986;21.452;2023-03-09T09:29:30;14.30;;;5.47;;
10699;SDS011;5401;41.986;21.452;2023-03-09T09:31:57;6.70;;;5.57;;
10699;SDS011;5401;41.986;21.452;2023-03-09T09:34:28;6.50;;;5.13;;
10699;SDS011;5401;41.986;21.452;2023-03-09T09:36:56;8.03;;;5.57;;
10699;SDS011;5401;41.986;21.452;2023-03-09T09:39:26;7.67;;;5.40;;
10699;SDS011;5401;41.986;21.452;2023-03-09T09:41:55;10.57;;;8.13;;
10699;SDS011;5401;41.986;21.452;2023-03-09T09:44:27;7.30;;;5.37;;
10699;SDS011;5401;41.986;21.452;2023-03-09T09:46:59;5.80;;;5.20;;
10699;SDS011;5401;41.986;21.452;2023-03-09T09:49:30;5.60;;;4.37;;
10699;SDS011;5401;41.986;21.452;2023-03-09T09:52:06;7.33;;;5.60;;
10699;SDS011;5401;41.986;21.452;2023-03-09T09:54:44;5.33;;;4.73;;
10699;SDS011;5401;41.986;21.452;2023-03-09T09:57:20;7.37;;;4.40;;
10699;SDS011;5401;41.986;21.452;2023-03-09T09:59:55;6.73;;;4.20;;
10699;SDS011;5401;41.986;21.452;2023-03-09T10:02:39;5.77;;;4.53;;
10699;SDS011;5401;41.986;21.452;2023-03-09T10:05:19;9.47;;;4.00;;
10699;SDS011;5401;41.986;21.452;2023-03-09T10:07:53;10.90;;;5.43;;
10699;SDS011;5401;41.986;21.452;2023-03-09T10:10:23;6.30;;;3.77;;
10699;SDS011;5401;41.986;21.452;2023-03-09T10:12:55;6.60;;;3.90;;
10699;SDS011;5401;41.986;21.452;2023-03-09T10:15:30;8.23;;;4.60;;
10699;SDS011;5401;41.986;21.452;2023-03-09T10:18:02;8.27;;;5.10;;
10699;SDS011;5401;41.986;21.452;2023-03-09T10:20:35;5.57;;;3.80;;
10699;SDS011;5401;41.986;21.452;2023-03-09T10:23:10;4.60;;;4.00;;
10699;SDS011;5401;41.986;21.452;2023-03-09T10:25:44;5.73;;;4.40;;
10699;SDS011;5401;41.986;21.452;2023-03-09T10:28:14;9.67;;;5.67;;
10699;SDS011;5401;41.986;21.452;2023-03-09T10:30:45;4.13;;;3.83;;
10699;SDS011;5401;41.986;21.452;2023-03-09T10:33:19;6.63;;;3.83;;
10699;SDS011;5401;41.986;21.452;2023-03-09T10:35:59;5.17;;;4.20;;
10699;SDS011;5401;41.986;21.452;2023-03-09T10:38:32;5.80;;;3.93;;
10699;SDS011;5401;41.986;21.452;2023-03-09T10:41:03;4.30;;;3.90;;
10699;SDS011;5401;41.986;21.452;2023-03-09T10:43:39;6.03;;;3.50;;
10699;SDS011;5401;41.986;21.452;2023-03-09T10:46:10;4.10;;;3.23;;
10699;SDS011;5401;41.986;21.452;2023-03-09T10:48:41;5.23;;;3.47;;
10699;SDS011;5401;41.986;21.452;2023-03-09T10:51:24;4.80;;;3.20;;
10699;SDS011;5401;41.986;21.452;2023-03-09T10:53:53;7.10;;;3.47;;
10699;SDS011;5401;41.986;21.452;2023-03-09T10:56:22;4.20;;;3.00;;
10699;SDS011;5401;41.986;21.452;2023-03-09T11:01:43;6.80;;;2.97;;
10699;SDS011;5401;41.986;21.452;2023-03-09T11:07:15;4.70;;;2.77;;
10699;SDS011;5401;41.986;21.452;2023-03-09T11:09:46;4.80;;;3.37;;
10699;SDS011;5401;41.986;21.452;2023-03-09T11:12:15;4.57;;;3.27;;
10699;SDS011;5401;41.986;21.452;2023-03-09T11:14:47;4.47;;;3.47;;
10699;SDS011;5401;41.986;21.452;2023-03-09T11:17:27;4.37;;;3.23;;
10699;SDS011;5401;41.986;21.452;2023-03-09T11:22:51;5.27;;;2.77;;
10699;SDS011;5401;41.986;21.452;2023-03-09T11:25:30;3.33;;;3.00;;
10699;SDS011;5401;41.986;21.452;2023-03-09T11:28:10;4.80;;;3.17;;
10699;SDS011;5401;41.986;21.452;2023-03-09T11:30:48;3.07;;;2.60;;
10699;SDS011;5401;41.986;21.452;2023-03-09T11:33:18;3.97;;;2.90;;
10699;SDS011;5401;41.986;21.452;2023-03-09T11:35:48;9.53;;;2.90;;
10699;SDS011;5401;41.986;21.452;2023-03-09T11:38:18;6.13;;;2.40;;
10699;SDS011;5401;41.986;21.452;2023-03-09T11:40:47;4.20;;;2.50;;
10699;SDS011;5401;41.986;21.452;2023-03-09T11:43:18;4.30;;;2.30;;
10699;SDS011;5401;41.986;21.452;2023-03-09T11:45:53;3.07;;;2.30;;
10699;SDS011;5401;41.986;21.452;2023-03-09T11:48:25;4.70;;;2.40;;
10699;SDS011;5401;41.986;21.452;2023-03-09T11:50:58;3.03;;;2.20;;
10699;SDS011;5401;41.986;21.452;2023-03-09T11:53:29;3.13;;;1.80;;
10699;SDS011;5401;41.986;21.452;2023-03-09T11:56:02;5.77;;;2.00;;
10699;SDS011;5401;41.986;21.452;2023-03-09T11:58:41;5.03;;;2.30;;
10699;SDS011;5401;41.986;21.452;2023-03-09T12:01:16;8.33;;;4.00;;
10699;SDS011;5401;41.986;21.452;2023-03-09T12:03:49;8.50;;;2.60;;
10699;SDS011;5401;41.986;21.452;2023-03-09T12:06:36;4.30;;;2.20;;
10699;SDS011;5401;41.986;21.452;2023-03-09T12:09:10;4.17;;;2.30;;
10699;SDS011;5401;41.986;21.452;2023-03-09T12:11:50;5.00;;;2.17;;
10699;SDS011;5401;41.986;21.452;2023-03-09T12:14:21;2.43;;;2.07;;
10699;SDS011;5401;41.986;21.452;2023-03-09T12:16:54;3.40;;;2.27;;
10699;SDS011;5401;41.986;21.452;2023-03-09T12:19:26;3.13;;;2.30;;
10699;SDS011;5401;41.986;21.452;2023-03-09T12:22:00;3.80;;;2.20;;
10699;SDS011;5401;41.986;21.452;2023-03-09T12:24:32;4.17;;;2.50;;
10699;SDS011;5401;41.986;21.452;2023-03-09T12:27:10;5.13;;;2.20;;
10699;SDS011;5401;41.986;21.452;2023-03-09T12:29:42;6.97;;;1.97;;
10699;SDS011;5401;41.986;21.452;2023-03-09T12:38:23;4.97;;;2.57;;
10699;SDS011;5401;41.986;21.452;2023-03-09T12:40:53;24.27;;;4.97;;
10699;SDS011;5401;41.986;21.452;2023-03-09T12:43:43;8.90;;;2.77;;
10699;SDS011;5401;41.986;21.452;2023-03-09T12:49:19;8.73;;;2.10;;
10699;SDS011;5401;41.986;21.452;2023-03-09T12:51:58;4.10;;;2.50;;
10699;SDS011;5401;41.986;21.452;2023-03-09T12:54:40;4.23;;;2.30;;
10699;SDS011;5401;41.986;21.452;2023-03-09T12:57:10;2.30;;;2.10;;
10699;SDS011;5401;41.986;21.452;2023-03-09T12:59:43;3.43;;;2.20;;
10699;SDS011;5401;41.986;21.452;2023-03-09T13:02:28;3.50;;;2.17;;
10699;SDS011;5401;41.986;21.452;2023-03-09T13:07:58;12.07;;;2.40;;
10699;SDS011;5401;41.986;21.452;2023-03-09T13:10:31;2.77;;;2.00;;
10699;SDS011;5401;41.986;21.452;2023-03-09T13:22:16;7.90;;;2.67;;
10699;SDS011;5401;41.986;21.452;2023-03-09T13:28:14;2.80;;;2.50;;
10699;SDS011;5401;41.986;21.452;2023-03-09T13:31:02;3.80;;;2.60;;
10699;SDS011;5401;41.986;21.452;2023-03-09T13:33:34;4.33;;;2.30;;
10699;SDS011;5401;41.986;21.452;2023-03-09T13:36:05;6.93;;;2.40;;
10699;SDS011;5401;41.986;21.452;2023-03-09T13:38:39;2.53;;;2.10;;
10699;SDS011;5401;41.986;21.452;2023-03-09T13:41:15;7.40;;;2.23;;
10699;SDS011;5401;41.986;21.452;2023-03-09T13:43:47;4.60;;;2.07;;
10699;SDS011;5401;41.986;21.452;2023-03-09T13:46:18;6.73;;;1.93;;
10699;SDS011;5401;41.986;21.452;2023-03-09T13:48:49;3.20;;;1.97;;
10699;SDS011;5401;41.986;21.452;2023-03-09T13:51:23;2.30;;;1.80;;
10699;SDS011;5401;41.986;21.452;2023-03-09T13:54:16;4.20;;;2.23;;
10699;SDS011;5401;41.986;21.452;2023-03-09T13:57:00;6.73;;;1.80;;
10699;SDS011;5401;41.986;21.452;2023-03-09T13:59:31;4.03;;;2.03;;
10699;SDS011;5401;41.986;21.452;2023-03-09T14:02:09;4.13;;;2.30;;
10699;SDS011;5401;41.986;21.452;2023-03-09T14:04:44;10.27;;;2.40;;
10699;SDS011;5401;41.986;21.452;2023-03-09T14:07:14;4.57;;;2.27;;
10699;SDS011;5401;41.986;21.452;2023-03-09T14:09:49;7.63;;;2.97;;
10699;SDS011;5401;41.986;21.452;2023-03-09T14:12:24;6.10;;;2.43;;
10699;SDS011;5401;41.986;21.452;2023-03-09T14:14:54;7.40;;;2.60;;
10699;SDS011;5401;41.986;21.452;2023-03-09T14:17:24;8.23;;;2.13;;
10699;SDS011;5401;41.986;21.452;2023-03-09T14:19:53;10.33;;;2.40;;
10699;SDS011;5401;41.986;21.452;2023-03-09T14:22:25;9.30;;;2.60;;
10699;SDS011;5401;41.986;21.452;2023-03-09T14:24:56;4.97;;;1.90;;
10699;SDS011;5401;41.986;21.452;2023-03-09T14:27:24;4.30;;;2.07;;
10699;SDS011;5401;41.986;21.452;2023-03-09T14:29:55;2.30;;;1.67;;
10699;SDS011;5401;41.986;21.452;2023-03-09T14:32:24;4.07;;;2.00;;
10699;SDS011;5401;41.986;21.452;2023-03-09T14:34:55;3.40;;;1.50;;
10699;SDS011;5401;41.986;21.452;2023-03-09T14:37:24;2.33;;;1.30;;
10699;SDS011;5401;41.986;21.452;2023-03-09T14:39:53;2.90;;;1.63;;
10699;SDS011;5401;41.986;21.452;2023-03-09T14:42:25;1.40;;;1.30;;
10699;SDS011;5401;41.986;21.452;2023-03-09T14:44:58;1.47;;;1.23;;
10699;SDS011;5401;41.986;21.452;2023-03-09T14:47:29;1.20;;;1.10;;
10699;SDS011;5401;41.986;21.452;2023-03-09T14:49:56;2.87;;;1.23;;
10699;SDS011;5401;41.986;21.452;2023-03-09T14:52:27;1.27;;;1.27;;
10699;SDS011;5401;41.986;21.452;2023-03-09T14:54:57;1.27;;;1.10;;
10699;SDS011;5401;41.986;21.452;2023-03-09T14:57:26;3.33;;;1.30;;
10699;SDS011;5401;41.986;21.452;2023-03-09T14:59:54;5.87;;;1.30;;
10699;SDS011;5401;41.986;21.452;2023-03-09T15:02:22;9.00;;;1.53;;
10699;SDS011;5401;41.986;21.452;2023-03-09T15:04:49;1.47;;;1.00;;
10699;SDS011;5401;41.986;21.452;2023-03-09T15:07:17;3.43;;;1.53;;
10699;SDS011;5401;41.986;21.452;2023-03-09T15:09:45;4.27;;;1.43;;
10699;SDS011;5401;41.986;21.452;2023-03-09T15:12:15;6.17;;;1.57;;
10699;SDS011;5401;41.986;21.452;2023-03-09T15:14:47;2.03;;;1.23;;
10699;SDS011;5401;41.986;21.452;2023-03-09T15:17:16;7.30;;;1.30;;
10699;SDS011;5401;41.986;21.452;2023-03-09T15:19:45;1.00;;;1.00;;
10699;SDS011;5401;41.986;21.452;2023-03-09T15:22:14;5.73;;;1.20;;
10699;SDS011;5401;41.986;21.452;2023-03-09T15:24:43;6.30;;;1.50;;